createdAt,value
2022-07-31T00:00:19.665Z,11.67
2022-07-31T00:02:47.023Z,12.10
2022-07-31T00:05:14.142Z,10.50
2022-07-31T00:07:41.253Z,6.73
2022-07-31T00:10:08.467Z,4.50
2022-07-31T00:12:35.732Z,1.47
2022-07-31T00:15:05.658Z,1.93
2022-07-31T00:17:32.839Z,1.90
2022-07-31T00:19:59.703Z,3.13
2022-07-31T00:22:26.597Z,3.03
2022-07-31T00:24:53.502Z,9.27
2022-07-31T00:27:21.111Z,10.53
2022-07-31T00:29:48.111Z,11.33
2022-07-31T00:32:15.058Z,10.73
2022-07-31T00:34:42.666Z,7.97
2022-07-31T00:37:10.169Z,3.20
2022-07-31T00:39:37.209Z,0.90
2022-07-31T00:42:05.950Z,1.73
2022-07-31T00:44:32.888Z,1.80
2022-07-31T00:47:00.692Z,2.23
2022-07-31T00:49:37.746Z,1.27
2022-07-31T00:52:05.871Z,1.57
2022-07-31T00:54:33.158Z,1.27
2022-07-31T00:57:00.246Z,3.50
2022-07-31T00:59:28.855Z,1.83
2022-07-31T01:01:56.666Z,4.97
2022-07-31T01:04:23.610Z,9.13
2022-07-31T01:06:50.554Z,10.87
2022-07-31T01:09:17.533Z,11.63
2022-07-31T01:12:02.869Z,11.90
2022-07-31T01:14:34.418Z,1.10
2022-07-31T01:17:02.352Z,1.50
2022-07-31T01:19:39.817Z,1.10
2022-07-31T01:22:33.299Z,3.03
2022-07-31T01:25:16.572Z,1.77
2022-07-31T01:27:49.984Z,4.43
2022-07-31T01:30:17.188Z,10.80
2022-07-31T01:32:47.352Z,10.47
2022-07-31T01:35:20.324Z,13.20
2022-07-31T01:38:06.722Z,10.33
2022-07-31T01:40:36.741Z,3.73
2022-07-31T01:43:15.310Z,2.37
2022-07-31T01:45:44.177Z,8.10
2022-07-31T01:48:14.654Z,4.97
2022-07-31T01:50:45.312Z,8.87
2022-07-31T01:53:14.739Z,8.23
2022-07-31T01:55:56.344Z,9.27
2022-07-31T01:58:30.943Z,1.03
2022-07-31T02:00:58.517Z,1.40
2022-07-31T02:03:43.935Z,5.00
2022-07-31T02:06:17.451Z,8.27
2022-07-31T02:08:49.717Z,11.63
2022-07-31T02:11:18.934Z,11.57
2022-07-31T02:13:47.057Z,12.17
2022-07-31T02:16:15.650Z,6.60
2022-07-31T02:18:42.746Z,7.40
2022-07-31T02:21:10.342Z,3.00
2022-07-31T02:23:38.461Z,1.20
2022-07-31T02:26:07.373Z,2.00
2022-07-31T02:28:38.192Z,1.23
2022-07-31T02:31:07.251Z,1.70
2022-07-31T02:33:34.546Z,1.37
2022-07-31T02:36:02.751Z,1.87
2022-07-31T02:38:29.772Z,1.20
2022-07-31T02:41:04.496Z,5.40
2022-07-31T02:43:33.373Z,0.90
2022-07-31T02:46:00.707Z,2.93
2022-07-31T02:48:27.960Z,2.63
2022-07-31T02:50:55.335Z,7.77
2022-07-31T02:53:22.710Z,10.10
2022-07-31T02:55:50.081Z,11.83
2022-07-31T02:58:16.969Z,12.40
2022-07-31T03:00:44.105Z,5.03
2022-07-31T03:03:11.052Z,4.30
2022-07-31T03:05:38.075Z,1.50
2022-07-31T03:08:05.483Z,2.00
2022-07-31T03:10:32.588Z,1.10
2022-07-31T03:13:01.754Z,3.70
2022-07-31T03:15:29.720Z,1.40
2022-07-31T03:17:56.622Z,5.47
2022-07-31T03:20:24.978Z,7.43
2022-07-31T03:22:51.917Z,10.10
2022-07-31T03:25:20.125Z,11.30
2022-07-31T03:27:56.288Z,10.73
2022-07-31T03:30:27.226Z,8.70
2022-07-31T03:32:55.998Z,8.60
2022-07-31T03:35:24.335Z,9.00
2022-07-31T03:37:51.809Z,9.83
2022-07-31T03:40:18.865Z,11.13
2022-07-31T03:42:46.416Z,11.07
2022-07-31T03:45:13.935Z,5.30
2022-07-31T03:47:41.029Z,2.73
2022-07-31T03:50:08.867Z,4.17
2022-07-31T03:52:36.700Z,1.07
2022-07-31T03:55:04.280Z,1.83
2022-07-31T03:57:34.205Z,1.10
2022-07-31T04:00:02.562Z,1.80
2022-07-31T04:02:30.334Z,1.10
2022-07-31T04:04:58.814Z,1.30
2022-07-31T04:07:25.896Z,6.10
2022-07-31T04:09:52.795Z,10.13
2022-07-31T04:12:19.709Z,10.73
2022-07-31T04:14:47.202Z,11.80
2022-07-31T04:17:14.305Z,5.70
2022-07-31T04:19:41.404Z,3.87
2022-07-31T04:22:08.758Z,2.70
2022-07-31T04:24:36.293Z,0.90
2022-07-31T04:27:08.159Z,1.80
2022-07-31T04:29:38.039Z,0.97
2022-07-31T04:32:05.777Z,1.87
2022-07-31T04:34:33.100Z,1.87
2022-07-31T04:37:00.072Z,3.10
2022-07-31T04:39:27.042Z,2.90
2022-07-31T04:41:54.026Z,9.20
2022-07-31T04:44:20.990Z,11.07
2022-07-31T04:46:47.952Z,12.13
2022-07-31T04:49:15.364Z,10.93
2022-07-31T04:51:43.342Z,7.50
2022-07-31T04:54:10.817Z,2.83
2022-07-31T04:56:41.954Z,0.80
2022-07-31T04:59:12.118Z,3.17
2022-07-31T05:01:40.215Z,2.80
2022-07-31T05:04:08.418Z,1.63
2022-07-31T05:06:43.384Z,1.00
2022-07-31T05:09:19.166Z,2.73
2022-07-31T05:11:49.680Z,11.27
2022-07-31T05:14:18.546Z,10.60
2022-07-31T05:16:45.804Z,10.47
2022-07-31T05:19:14.877Z,5.40
2022-07-31T05:21:53.435Z,8.90
2022-07-31T05:24:22.629Z,8.93
2022-07-31T05:27:04.781Z,1.93
2022-07-31T05:29:32.538Z,1.10
2022-07-31T05:32:01.150Z,2.47
2022-07-31T05:34:31.417Z,1.10
2022-07-31T05:37:02.642Z,1.20
2022-07-31T05:39:29.650Z,1.00
2022-07-31T05:41:56.551Z,5.80
2022-07-31T05:44:23.473Z,8.33
2022-07-31T05:49:16.248Z,10.13
2022-07-31T05:51:44.767Z,5.33
2022-07-31T05:54:11.815Z,7.23
2022-07-31T05:56:38.716Z,2.87
2022-07-31T05:59:05.930Z,1.60
2022-07-31T06:01:32.891Z,1.03
2022-07-31T06:04:00.116Z,3.23
2022-07-31T06:06:26.956Z,2.90
2022-07-31T06:08:53.796Z,9.73
2022-07-31T06:11:21.096Z,9.57
2022-07-31T06:13:47.946Z,10.30
2022-07-31T06:16:15.496Z,10.70
2022-07-31T06:18:42.637Z,7.70
2022-07-31T06:21:09.958Z,3.10
2022-07-31T06:23:37.336Z,1.13
2022-07-31T06:26:04.945Z,2.23
2022-07-31T06:28:48.083Z,0.90
2022-07-31T06:31:20.795Z,11.30
2022-07-31T06:33:49.600Z,9.80
2022-07-31T06:36:17.919Z,10.20
2022-07-31T06:38:45.998Z,10.13
2022-07-31T06:41:33.092Z,5.63
2022-07-31T06:44:00.119Z,2.83
2022-07-31T06:46:27.256Z,3.20
2022-07-31T06:48:54.220Z,8.43
2022-07-31T06:51:36.801Z,9.73
2022-07-31T06:54:06.229Z,1.70
2022-07-31T06:56:33.884Z,1.00
2022-07-31T06:59:01.309Z,1.73
2022-07-31T07:01:30.561Z,1.10
2022-07-31T07:03:57.751Z,2.40
2022-07-31T07:06:24.858Z,7.33
2022-07-31T07:08:52.171Z,8.70
2022-07-31T07:11:20.274Z,10.27
2022-07-31T07:13:47.752Z,10.40
2022-07-31T07:16:15.534Z,8.83
2022-07-31T07:18:43.332Z,5.83
2022-07-31T07:21:10.807Z,2.43
2022-07-31T07:23:37.975Z,0.90
2022-07-31T07:26:05.919Z,2.73
2022-07-31T07:28:32.995Z,1.10
2022-07-31T07:30:59.893Z,3.00
2022-07-31T07:33:41.214Z,3.90
2022-07-31T07:36:21.781Z,3.30
2022-07-31T07:38:51.430Z,7.73
2022-07-31T07:41:18.713Z,10.93
2022-07-31T07:43:45.729Z,8.90
2022-07-31T07:46:15.458Z,11.20
2022-07-31T07:48:42.280Z,8.03
2022-07-31T07:51:09.197Z,3.27
2022-07-31T07:53:37.081Z,0.90
2022-07-31T07:56:04.242Z,1.37
2022-07-31T07:58:31.115Z,1.10
2022-07-31T08:00:58.074Z,2.07
2022-07-31T08:03:50.185Z,6.73
2022-07-31T08:06:11.859Z,6.73
2022-07-31T08:08:38.744Z,2.77
2022-07-31T08:11:06.071Z,1.47
2022-07-31T08:13:32.938Z,1.20
2022-07-31T08:16:00.035Z,2.90
2022-07-31T08:18:27.262Z,3.17
2022-07-31T08:20:55.930Z,5.40
2022-07-31T08:23:22.812Z,7.70
2022-07-31T08:25:50.267Z,8.40
2022-07-31T08:28:19.434Z,11.00
2022-07-31T08:30:46.544Z,8.63
2022-07-31T08:33:13.398Z,4.70
2022-07-31T08:35:40.230Z,3.33
2022-07-31T08:38:12.397Z,4.43
2022-07-31T08:40:43.245Z,2.50
2022-07-31T08:43:31.050Z,1.97
2022-07-31T08:46:02.877Z,1.80
2022-07-31T08:48:32.816Z,1.10
2022-07-31T08:51:02.495Z,3.50
2022-07-31T08:53:33.216Z,0.87
2022-07-31T08:56:00.655Z,2.43
2022-07-31T08:58:27.607Z,2.67
2022-07-31T09:00:55.297Z,7.60
2022-07-31T09:03:22.821Z,8.33
2022-07-31T09:05:50.023Z,7.47
2022-07-31T09:08:16.953Z,8.60
2022-07-31T09:10:49.256Z,3.60
2022-07-31T09:13:18.832Z,7.90
2022-07-31T09:15:46.547Z,8.27
2022-07-31T09:18:22.055Z,4.57
2022-07-31T09:20:56.711Z,7.90
2022-07-31T09:23:24.530Z,6.80
2022-07-31T09:25:53.276Z,6.53
2022-07-31T09:28:24.845Z,7.33
2022-07-31T09:30:56.536Z,6.80
2022-07-31T09:33:23.997Z,6.70
2022-07-31T09:35:52.809Z,6.50
2022-07-31T09:38:20.827Z,6.60
2022-07-31T09:40:57.569Z,7.70
2022-07-31T09:43:25.946Z,6.20
2022-07-31T09:45:59.809Z,1.07
2022-07-31T09:48:28.812Z,3.60
2022-07-31T09:51:01.222Z,4.73
2022-07-31T09:53:43.543Z,1.77
2022-07-31T09:56:12.734Z,2.03
2022-07-31T09:58:40.983Z,2.07
2022-07-31T10:01:10.875Z,1.07
2022-07-31T10:03:38.724Z,0.80
2022-07-31T10:06:16.449Z,1.20
2022-07-31T10:08:44.648Z,3.63
2022-07-31T10:11:16.639Z,3.30
2022-07-31T10:13:49.864Z,3.37
2022-07-31T10:16:17.092Z,7.70
2022-07-31T10:18:48.040Z,3.50
2022-07-31T10:21:16.771Z,5.63
2022-07-31T10:23:44.845Z,3.80
2022-07-31T10:26:11.792Z,4.30
2022-07-31T10:28:38.698Z,1.43
2022-07-31T10:31:06.385Z,1.30
2022-07-31T10:33:49.270Z,0.93
2022-07-31T10:36:23.260Z,5.93
2022-07-31T10:38:59.258Z,6.10
2022-07-31T10:41:55.267Z,5.53
2022-07-31T10:44:41.736Z,6.50
2022-07-31T10:47:13.395Z,1.93
2022-07-31T10:49:45.152Z,2.17
2022-07-31T10:52:12.732Z,5.50
2022-07-31T10:54:44.555Z,2.00
2022-07-31T10:57:25.245Z,2.60
2022-07-31T10:59:52.621Z,7.80
2022-07-31T11:02:33.412Z,9.07
2022-07-31T11:05:16.226Z,1.33
2022-07-31T11:07:45.732Z,4.90
2022-07-31T11:10:18.064Z,5.50
2022-07-31T11:12:45.736Z,8.53
2022-07-31T11:15:23.638Z,5.43
2022-07-31T11:18:25.090Z,6.80
2022-07-31T11:20:38.426Z,1.00
2022-07-31T11:23:08.464Z,1.67
2022-07-31T11:25:37.269Z,1.10
2022-07-31T11:28:24.890Z,1.30
2022-07-31T11:31:09.801Z,7.07
2022-07-31T11:33:43.957Z,8.20
2022-07-31T11:36:18.463Z,2.03
2022-07-31T11:38:47.594Z,9.33
2022-07-31T11:41:15.344Z,4.63
2022-07-31T11:43:50.756Z,5.77
2022-07-31T11:46:28.503Z,7.10
2022-07-31T11:48:56.238Z,6.40
2022-07-31T11:51:24.697Z,6.50
2022-07-31T11:53:57.296Z,6.83
2022-07-31T11:56:26.622Z,6.63
2022-07-31T11:58:55.940Z,6.83
2022-07-31T12:01:27.959Z,6.87
2022-07-31T12:03:55.916Z,6.70
2022-07-31T12:06:23.583Z,6.60
2022-07-31T12:08:52.378Z,6.50
2022-07-31T12:11:20.389Z,7.30
2022-07-31T12:13:49.189Z,7.40
2022-07-31T12:16:16.668Z,5.83
2022-07-31T12:18:47.747Z,4.40
2022-07-31T12:21:14.934Z,5.40
2022-07-31T12:23:46.628Z,3.83
2022-07-31T12:26:33.879Z,6.17
2022-07-31T12:29:12.583Z,1.43
2022-07-31T12:31:48.597Z,2.27
2022-07-31T12:34:38.452Z,7.97
2022-07-31T12:37:07.105Z,3.47
2022-07-31T12:39:53.855Z,1.23
2022-07-31T12:42:34.196Z,3.90
2022-07-31T12:45:18.240Z,1.53
2022-07-31T12:47:51.567Z,6.03
2022-07-31T12:50:24.454Z,6.50
2022-07-31T12:52:51.637Z,7.83
2022-07-31T12:55:18.938Z,8.87
2022-07-31T12:57:49.026Z,8.00
2022-07-31T13:00:19.388Z,7.47
2022-07-31T13:02:46.348Z,6.13
2022-07-31T13:05:13.450Z,4.67
2022-07-31T13:07:40.531Z,2.37
2022-07-31T13:10:14.791Z,1.63
2022-07-31T13:12:46.066Z,5.93
2022-07-31T13:15:13.006Z,4.77
2022-07-31T13:17:43.748Z,2.13
2022-07-31T13:20:16.647Z,5.07
2022-07-31T13:22:43.786Z,6.57
2022-07-31T13:25:10.652Z,6.27
2022-07-31T13:27:37.848Z,1.27
2022-07-31T13:30:05.634Z,1.43
2022-07-31T13:32:32.851Z,0.87
2022-07-31T13:35:24.098Z,2.60
2022-07-31T13:37:47.339Z,6.17
2022-07-31T13:40:15.747Z,7.97
2022-07-31T13:42:42.758Z,5.73
2022-07-31T13:45:10.293Z,2.40
2022-07-31T13:47:50.660Z,1.20
2022-07-31T13:50:19.119Z,8.57
2022-07-31T13:52:46.100Z,6.03
2022-07-31T13:55:12.959Z,4.70
2022-07-31T13:57:39.869Z,2.03
2022-07-31T14:00:07.807Z,1.50
2022-07-31T14:02:34.871Z,1.20
2022-07-31T14:05:01.874Z,1.20
2022-07-31T14:07:45.618Z,1.20
2022-07-31T14:10:20.188Z,6.03
2022-07-31T14:12:47.671Z,8.70
2022-07-31T14:15:15.066Z,3.43
2022-07-31T14:17:41.975Z,3.97
2022-07-31T14:20:09.422Z,1.80
2022-07-31T14:22:36.591Z,1.70
2022-07-31T14:25:04.310Z,1.20
2022-07-31T14:27:31.248Z,1.10
2022-07-31T14:29:58.159Z,2.07
2022-07-31T14:32:25.311Z,5.67
2022-07-31T14:34:52.552Z,6.20
2022-07-31T14:37:20.704Z,6.50
2022-07-31T14:39:47.908Z,7.23
2022-07-31T14:42:14.939Z,4.03
2022-07-31T14:44:49.061Z,8.00
2022-07-31T14:47:16.943Z,5.90
2022-07-31T14:50:09.478Z,3.70
2022-07-31T14:52:31.676Z,1.10
2022-07-31T14:55:00.423Z,1.67
2022-07-31T14:57:31.695Z,3.23
2022-07-31T14:59:58.785Z,1.83
2022-07-31T15:02:26.033Z,5.40
2022-07-31T15:04:53.468Z,6.10
2022-07-31T15:07:39.698Z,6.37
2022-07-31T15:10:09.488Z,1.47
2022-07-31T15:12:36.718Z,0.90
2022-07-31T15:15:04.080Z,1.53
2022-07-31T15:17:31.001Z,0.73
2022-07-31T15:19:57.984Z,2.30
2022-07-31T15:22:24.921Z,6.60
2022-07-31T15:24:51.901Z,6.23
2022-07-31T15:27:19.287Z,8.83
2022-07-31T15:30:04.666Z,5.83
2022-07-31T15:32:34.242Z,1.10
2022-07-31T15:35:01.134Z,1.10
2022-07-31T15:37:28.316Z,2.33
2022-07-31T15:40:02.437Z,6.30
2022-07-31T15:42:37.847Z,0.90
2022-07-31T15:45:05.612Z,1.20
2022-07-31T15:47:32.552Z,1.00
2022-07-31T15:49:59.460Z,2.80
2022-07-31T15:52:26.563Z,4.40
2022-07-31T15:54:53.672Z,6.83
2022-07-31T15:57:21.459Z,6.63
2022-07-31T15:59:49.479Z,7.03
2022-07-31T16:02:16.700Z,5.70
2022-07-31T16:04:52.368Z,4.43
2022-07-31T16:08:30.359Z,6.13
2022-07-31T16:10:15.911Z,1.40
2022-07-31T16:12:47.739Z,3.67
2022-07-31T16:15:16.096Z,3.07
2022-07-31T16:17:43.319Z,4.53
2022-07-31T16:20:11.995Z,2.40
2022-07-31T16:22:40.250Z,1.57
2022-07-31T16:25:08.688Z,1.57
2022-07-31T16:27:35.793Z,1.00
2022-07-31T16:30:03.395Z,1.63
2022-07-31T16:32:30.919Z,1.07
2022-07-31T16:35:00.918Z,2.50
2022-07-31T16:37:50.878Z,2.20
2022-07-31T16:40:28.042Z,5.77
2022-07-31T16:42:56.565Z,5.47
2022-07-31T16:45:23.465Z,6.10
2022-07-31T16:47:51.647Z,6.33
2022-07-31T16:50:19.050Z,8.43
2022-07-31T16:52:48.290Z,5.87
2022-07-31T16:55:17.107Z,6.10
2022-07-31T16:57:44.050Z,4.30
2022-07-31T17:00:11.598Z,2.20
2022-07-31T17:02:38.821Z,1.10
2022-07-31T17:05:06.351Z,1.27
2022-07-31T17:07:33.261Z,0.90
2022-07-31T17:10:00.127Z,1.73
2022-07-31T17:12:27.469Z,3.53
2022-07-31T17:14:54.347Z,6.20
2022-07-31T17:17:21.767Z,6.30
2022-07-31T17:19:48.690Z,7.03
2022-07-31T17:22:22.461Z,6.20
2022-07-31T17:24:51.014Z,7.20
2022-07-31T17:27:19.397Z,7.33
2022-07-31T17:29:46.320Z,5.57
2022-07-31T17:32:13.376Z,4.67
2022-07-31T17:34:40.686Z,2.13
2022-07-31T17:37:08.197Z,1.33
2022-07-31T17:39:36.213Z,0.80
2022-07-31T17:42:03.309Z,1.30
2022-07-31T17:44:30.301Z,1.07
2022-07-31T17:46:58.068Z,3.40
2022-07-31T17:49:25.561Z,6.17
2022-07-31T17:51:57.656Z,5.80
2022-07-31T17:54:31.451Z,3.60
2022-07-31T17:56:59.555Z,1.80
2022-07-31T17:59:27.151Z,4.80
2022-07-31T18:02:00.218Z,6.43
2022-07-31T18:04:29.024Z,3.00
2022-07-31T18:06:56.636Z,5.10
2022-07-31T18:09:24.258Z,5.67
2022-07-31T18:11:52.511Z,6.33
2022-07-31T18:14:20.174Z,6.90
2022-07-31T18:16:47.435Z,5.80
2022-07-31T18:19:14.986Z,3.50
2022-07-31T18:21:41.934Z,2.33
2022-07-31T18:24:09.100Z,1.20
2022-07-31T18:26:37.434Z,1.07
2022-07-31T18:29:05.129Z,2.60
2022-07-31T18:31:35.201Z,1.00
2022-07-31T18:34:04.181Z,1.80
2022-07-31T18:36:32.259Z,0.90
2022-07-31T18:38:59.252Z,1.67
2022-07-31T18:41:26.196Z,5.63
2022-07-31T18:43:53.182Z,6.57
2022-07-31T18:46:20.628Z,6.20
2022-07-31T18:48:50.773Z,6.17
2022-07-31T18:51:23.285Z,6.10
2022-07-31T18:53:50.522Z,6.13
2022-07-31T18:56:17.762Z,7.80
2022-07-31T18:58:45.016Z,3.20
2022-07-31T19:01:11.980Z,2.07
2022-07-31T19:03:39.105Z,1.10
2022-07-31T19:06:06.543Z,1.40
2022-07-31T19:08:33.661Z,1.10
2022-07-31T19:11:00.885Z,1.60
2022-07-31T19:13:29.178Z,3.37
2022-07-31T19:15:56.119Z,5.73
2022-07-31T19:18:28.012Z,6.40
2022-07-31T19:21:17.636Z,5.67
2022-07-31T19:23:46.224Z,6.07
2022-07-31T19:26:13.188Z,5.77
2022-07-31T19:28:41.883Z,2.20
2022-07-31T19:31:09.542Z,3.07
2022-07-31T19:33:37.977Z,0.90
2022-07-31T19:36:05.935Z,1.27
2022-07-31T19:38:35.838Z,1.50
2022-07-31T19:41:03.628Z,1.43
2022-07-31T19:43:30.536Z,1.10
2022-07-31T19:46:10.407Z,3.67
2022-07-31T19:48:43.718Z,1.13
2022-07-31T19:51:11.376Z,2.47
2022-07-31T19:53:38.517Z,1.00
2022-07-31T19:56:06.507Z,1.30
2022-07-31T19:58:35.181Z,1.03
2022-07-31T20:01:03.605Z,1.40
2022-07-31T20:03:30.716Z,1.03
2022-07-31T20:05:58.566Z,3.27
2022-07-31T20:08:25.641Z,7.20
2022-07-31T20:10:52.785Z,6.90
2022-07-31T20:13:19.740Z,8.23
2022-07-31T20:15:51.624Z,8.33
2022-07-31T20:18:27.384Z,8.63
2022-07-31T20:20:57.274Z,7.23
2022-07-31T20:23:25.350Z,6.80
2022-07-31T20:25:52.341Z,7.07
2022-07-31T20:28:19.334Z,9.37
2022-07-31T20:30:46.593Z,8.33
2022-07-31T20:33:13.661Z,5.37
2022-07-31T20:35:48.502Z,2.47
2022-07-31T20:38:25.964Z,8.60
2022-07-31T20:40:55.743Z,8.03
2022-07-31T20:43:27.558Z,7.93
2022-07-31T20:45:58.616Z,7.50
2022-07-31T20:48:32.313Z,7.60
2022-07-31T20:51:00.585Z,2.73
2022-07-31T20:53:27.966Z,3.43
2022-07-31T20:55:55.389Z,7.40
2022-07-31T20:58:23.967Z,7.37
2022-07-31T21:00:52.212Z,6.93
2022-07-31T21:03:19.562Z,9.50
2022-07-31T21:05:46.841Z,8.77
2022-07-31T21:08:13.730Z,5.37
2022-07-31T21:10:40.739Z,2.93
2022-07-31T21:13:08.005Z,1.43
2022-07-31T21:15:42.314Z,1.17
2022-07-31T21:18:15.391Z,2.30
2022-07-31T21:20:52.480Z,3.13
2022-07-31T21:23:27.268Z,10.23
2022-07-31T21:25:58.445Z,7.97
2022-07-31T21:28:27.365Z,8.30
2022-07-31T21:30:56.517Z,7.83
2022-07-31T21:33:27.838Z,7.90
2022-07-31T21:35:55.602Z,7.93
2022-07-31T21:38:23.495Z,9.10
2022-07-31T21:40:50.836Z,7.00
2022-07-31T21:43:22.348Z,7.73
2022-07-31T21:45:57.659Z,9.03
2022-07-31T21:48:30.226Z,2.80
2022-07-31T21:50:57.445Z,6.77
2022-07-31T21:53:25.065Z,7.90
2022-07-31T21:55:52.311Z,9.03
2022-07-31T21:58:19.486Z,11.90
2022-07-31T22:00:46.573Z,10.00
2022-07-31T22:03:13.569Z,7.40
2022-07-31T22:05:59.118Z,3.13
2022-07-31T22:08:26.017Z,7.53
2022-07-31T22:10:52.963Z,9.17
2022-07-31T22:13:20.791Z,9.67
2022-07-31T22:15:57.032Z,10.10
2022-07-31T22:18:32.295Z,5.00
2022-07-31T22:21:00.458Z,2.90
2022-07-31T22:23:28.499Z,3.93
2022-07-31T22:25:56.255Z,8.93
2022-07-31T22:28:24.650Z,10.07
2022-07-31T22:30:52.563Z,10.70
2022-07-31T22:33:19.901Z,11.00
2022-07-31T22:35:59.535Z,9.17
2022-07-31T22:38:28.575Z,3.70
2022-07-31T22:40:55.527Z,8.63
2022-07-31T22:44:09.888Z,9.93
2022-07-31T22:46:12.012Z,2.13
2022-07-31T22:48:40.844Z,1.67
2022-07-31T22:51:08.500Z,2.00
2022-07-31T22:53:36.404Z,1.33
2022-07-31T22:56:03.686Z,1.63
2022-07-31T22:58:30.773Z,1.10
2022-07-31T23:00:57.694Z,4.03
2022-07-31T23:03:24.674Z,8.43
2022-07-31T23:06:28.096Z,10.67
2022-07-31T23:08:39.125Z,1.00
2022-07-31T23:11:07.063Z,1.40
2022-07-31T23:13:34.010Z,1.13
2022-07-31T23:16:00.927Z,1.73
2022-07-31T23:18:27.797Z,3.47
2022-07-31T23:20:54.707Z,8.30
2022-07-31T23:23:21.598Z,11.23
2022-07-31T23:25:48.514Z,9.27
2022-07-31T23:28:15.442Z,5.30
2022-07-31T23:30:42.357Z,3.03
2022-07-31T23:33:09.408Z,1.77
2022-07-31T23:35:36.424Z,1.00
2022-07-31T23:38:03.291Z,1.80
2022-07-31T23:40:30.659Z,2.37
2022-07-31T23:42:57.538Z,3.77
2022-07-31T23:45:24.547Z,9.60
2022-07-31T23:47:51.534Z,10.90
2022-07-31T23:50:18.437Z,11.83
2022-07-31T23:52:45.707Z,3.67
2022-07-31T23:55:13.031Z,3.47
2022-07-31T23:57:40.554Z,3.07
